Time,TemperatureF,DewpointF,PressureIn,WindDirection,WindDirectionDegrees,WindSpeedMPH,WindSpeedGustMPH,Humidity,HourlyPrecipIn,Conditions,Clouds,dailyrainin,SoftwareType,DateUTC
2013-11-09 00:00:00,60.0,42.0,30.19,ENE,70,17.0,20.0,52,-99.99,,,-99.99,,2013-11-09 06:00:00,
2013-11-09 00:43:00,60.0,42.0,30.19,ENE,70,17.0,20.0,52,-99.99,,,-99.99,,2013-11-09 06:43:00,
2013-11-09 00:54:00,60.0,42.0,30.19,ENE,70,17.0,20.0,52,-99.99,,,-99.99,,2013-11-09 06:54:00,
2013-11-09 01:00:00,59.0,44.0,30.18,ENE,60,20.0,21.0,58,-99.99,,,-99.99,,2013-11-09 07:00:00,
2013-11-09 01:42:00,59.0,44.0,30.18,ENE,60,20.0,21.0,58,-99.99,,,-99.99,,2013-11-09 07:42:00,
2013-11-09 01:52:00,59.0,44.0,30.18,ENE,60,20.0,21.0,58,-99.99,,,-99.99,,2013-11-09 07:52:00,
2013-11-09 02:00:00,59.0,46.0,30.17,ENE,60,17.0,18.0,62,-99.99,,,-99.99,,2013-11-09 08:00:00,
2013-11-09 02:42:00,59.0,46.0,30.17,ENE,60,17.0,18.0,62,-99.99,,,-99.99,,2013-11-09 08:42:00,
2013-11-09 02:52:00,59.0,46.0,30.17,ENE,60,17.0,18.0,62,-99.99,,,-99.99,,2013-11-09 08:52:00,
2013-11-09 03:00:00,58.0,47.0,30.17,ENE,60,18.0,20.0,67,-99.99,,,-99.99,,2013-11-09 09:00:00,
2013-11-09 03:42:00,58.0,47.0,30.17,ENE,60,18.0,20.0,67,-99.99,,,-99.99,,2013-11-09 09:42:00,
2013-11-09 03:53:00,58.0,47.0,30.17,ENE,60,18.0,20.0,67,-99.99,,,-99.99,,2013-11-09 09:53:00,
2013-11-09 04:00:00,58.0,49.0,30.16,ENE,70,16.0,18.0,72,-99.99,,,-99.99,,2013-11-09 10:00:00,
2013-11-09 04:42:00,58.0,49.0,30.16,ENE,70,16.0,18.0,72,-99.99,,,-99.99,,2013-11-09 10:42:00,
2013-11-09 04:52:00,58.0,49.0,30.16,ENE,70,16.0,18.0,72,-99.99,,,-99.99,,2013-11-09 10:52:00,
2013-11-09 05:00:00,57.0,50.0,30.17,ENE,60,17.0,20.0,76,-99.99,,,-99.99,,2013-11-09 11:00:00,
2013-11-09 05:42:00,57.0,50.0,30.17,ENE,60,17.0,20.0,76,-99.99,,,-99.99,,2013-11-09 11:42:00,
2013-11-09 05:52:00,57.0,50.0,30.17,ENE,60,17.0,20.0,76,-99.99,,,-99.99,,2013-11-09 11:52:00,
2013-11-09 06:00:00,57.0,49.0,30.20,ENE,60,17.0,20.0,76,-99.99,,,-99.99,,2013-11-09 12:00:00,
2013-11-09 06:42:00,57.0,49.0,30.20,ENE,60,17.0,20.0,76,-99.99,,,-99.99,,2013-11-09 12:42:00,
2013-11-09 06:52:00,57.0,49.0,30.20,ENE,60,17.0,20.0,76,-99.99,,,-99.99,,2013-11-09 12:52:00,
2013-11-09 07:00:00,57.0,51.0,30.20,ENE,60,20.0,23.0,78,-99.99,,,-99.99,,2013-11-09 13:00:00,
2013-11-09 07:41:00,57.0,51.0,30.20,ENE,60,20.0,23.0,78,-99.99,,,-99.99,,2013-11-09 13:41:00,
2013-11-09 07:52:00,57.0,51.0,30.20,ENE,60,20.0,23.0,78,-99.99,,,-99.99,,2013-11-09 13:52:00,
2013-11-09 08:00:00,58.0,51.0,30.22,ENE,60,20.0,21.0,78,-99.99,,,-99.99,,2013-11-09 14:00:00,
2013-11-09 08:42:00,58.0,51.0,30.22,ENE,60,20.0,21.0,78,-99.99,,,-99.99,,2013-11-09 14:42:00,
2013-11-09 08:52:00,58.0,51.0,30.22,ENE,60,20.0,21.0,78,-99.99,,,-99.99,,2013-11-09 14:52:00,
2013-11-09 09:00:00,59.0,52.0,30.22,ENE,70,18.0,21.0,77,-99.99,,,-99.99,,2013-11-09 15:00:00,
2013-11-09 09:43:00,59.0,52.0,30.22,ENE,70,18.0,21.0,77,-99.99,,,-99.99,,2013-11-09 15:43:00,
2013-11-09 09:53:00,59.0,52.0,30.22,ENE,70,18.0,21.0,77,-99.99,,,-99.99,,2013-11-09 15:53:00,
2013-11-09 10:00:00,62.0,54.0,30.24,NE,50,15.0,17.0,77,-99.99,,,-99.99,,2013-11-09 16:00:00,
2013-11-09 10:43:00,62.0,54.0,30.24,NE,50,15.0,17.0,77,-99.99,,,-99.99,,2013-11-09 16:43:00,
2013-11-09 10:52:00,62.0,54.0,30.24,NE,50,15.0,17.0,77,-99.99,,,-99.99,,2013-11-09 16:52:00,
2013-11-09 11:00:00,63.0,55.0,30.22,NNE,30,11.0,14.0,76,-99.99,,,-99.99,,2013-11-09 17:00:00,
2013-11-09 11:43:00,63.0,55.0,30.22,NNE,30,11.0,14.0,76,-99.99,,,-99.99,,2013-11-09 17:43:00,
2013-11-09 11:52:00,63.0,55.0,30.22,NNE,30,11.0,14.0,76,-99.99,,,-99.99,,2013-11-09 17:52:00,
2013-11-09 12:00:00,63.0,57.0,30.21,North,10,11.0,13.0,80,-99.99,,,-99.99,,2013-11-09 18:00:00,
2013-11-09 12:42:00,63.0,57.0,30.21,North,10,11.0,13.0,80,-99.99,,,-99.99,,2013-11-09 18:42:00,
2013-11-09 12:52:00,63.0,57.0,30.21,North,10,11.0,13.0,80,-99.99,,,-99.99,,2013-11-09 18:52:00,
2013-11-09 13:00:00,63.0,56.0,30.18,North,10,8.0,9.0,79,-99.99,,,-99.99,,2013-11-09 19:00:00,
2013-11-09 13:41:00,63.0,56.0,30.18,North,10,8.0,9.0,79,-99.99,,,-99.99,,2013-11-09 19:41:00,
2013-11-09 13:52:00,63.0,56.0,30.18,North,10,8.0,9.0,79,-99.99,,,-99.99,,2013-11-09 19:52:00,
2013-11-09 14:00:00,64.0,58.0,30.17,North,10,7.0,8.0,82,-99.99,,,-99.99,,2013-11-09 20:00:00,
2013-11-09 14:42:00,64.0,58.0,30.17,North,10,7.0,8.0,82,-99.99,,,-99.99,,2013-11-09 20:42:00,
2013-11-09 14:52:00,64.0,58.0,30.17,North,10,7.0,8.0,82,-99.99,,,-99.99,,2013-11-09 20:52:00,
2013-11-09 15:00:00,65.0,58.0,30.16,North,10,6.0,7.0,79,-99.99,,,-99.99,,2013-11-09 21:00:00,
2013-11-09 15:44:00,65.0,58.0,30.16,North,10,6.0,7.0,79,-99.99,,,-99.99,,2013-11-09 21:44:00,
2013-11-09 15:53:00,65.0,58.0,30.16,North,10,6.0,7.0,79,-99.99,,,-99.99,,2013-11-09 21:53:00,
2013-11-09 16:00:00,66.0,60.0,30.18,North,360,2.0,2.0,81,-99.99,,,-99.99,,2013-11-09 22:00:00,
2013-11-09 16:43:00,66.0,60.0,30.18,North,360,2.0,2.0,81,-99.99,,,-99.99,,2013-11-09 22:43:00,
2013-11-09 16:54:00,66.0,60.0,30.18,North,360,2.0,2.0,81,-99.99,,,-99.99,,2013-11-09 22:54:00,
2013-11-09 17:00:00,66.0,56.0,30.19,NE,40,2.0,3.0,69,-99.99,,,-99.99,,2013-11-09 23:00:00,
2013-11-09 17:42:00,66.0,56.0,30.19,NE,40,2.0,3.0,69,-99.99,,,-99.99,,2013-11-09 23:42:00,
2013-11-09 17:53:00,66.0,56.0,30.19,NE,40,2.0,3.0,69,-99.99,,,-99.99,,2013-11-09 23:53:00,
2013-11-09 18:00:00,66.0,59.0,30.19,ENE,70,6.0,6.0,79,-99.99,,,-99.99,,2013-11-10 00:00:00,
2013-11-09 18:42:00,66.0,59.0,30.19,ENE,70,6.0,6.0,79,-99.99,,,-99.99,,2013-11-10 00:42:00,
2013-11-09 18:52:00,66.0,59.0,30.19,ENE,70,6.0,6.0,79,-99.99,,,-99.99,,2013-11-10 00:52:00,
2013-11-09 19:00:00,67.0,60.0,30.19,East,80,9.0,9.0,79,-99.99,,,-99.99,,2013-11-10 01:00:00,
2013-11-09 19:42:00,67.0,60.0,30.19,East,80,9.0,9.0,79,-99.99,,,-99.99,,2013-11-10 01:42:00,
2013-11-09 19:52:00,67.0,60.0,30.19,East,80,9.0,9.0,79,-99.99,,,-99.99,,2013-11-10 01:52:00,
2013-11-09 20:00:00,66.0,60.0,30.20,NE,50,9.0,10.0,80,-99.99,,,-99.99,,2013-11-10 02:00:00,
2013-11-09 20:42:00,66.0,60.0,30.20,NE,50,9.0,10.0,80,-99.99,,,-99.99,,2013-11-10 02:42:00,
2013-11-09 20:52:00,66.0,60.0,30.20,NE,50,9.0,10.0,80,-99.99,,,-99.99,,2013-11-10 02:52:00,
2013-11-09 21:00:00,-999.0,-99.9,-100.00,NE,40,9.0,10.0,-999,-99.99,,,-99.99,,2013-11-10 03:00:00,
2013-11-09 21:44:00,65.0,60.0,30.20,NE,40,9.0,10.0,84,-99.99,,,-99.99,,2013-11-10 03:44:00,
2013-11-09 21:54:00,65.0,60.0,30.20,NE,40,9.0,10.0,84,-99.99,,,-99.99,,2013-11-10 03:54:00,
2013-11-09 22:00:00,64.0,60.0,30.21,NNE,20,10.0,11.0,86,-99.99,,,-99.99,,2013-11-10 04:00:00,
2013-11-09 22:43:00,64.0,60.0,30.21,NNE,20,10.0,11.0,86,-99.99,,,-99.99,,2013-11-10 04:43:00,
2013-11-09 22:52:00,64.0,60.0,30.21,NNE,20,10.0,11.0,86,-99.99,,,-99.99,,2013-11-10 04:52:00,
2013-11-09 23:00:00,64.0,56.0,30.20,NE,50,10.0,11.0,74,-99.99,,,-99.99,,2013-11-10 05:00:00,
2013-11-09 23:43:00,64.0,56.0,30.20,NE,50,10.0,11.0,74,-99.99,,,-99.99,,2013-11-10 05:43:00,
2013-11-09 23:53:00,64.0,56.0,30.20,NE,50,10.0,11.0,74,-99.99,,,-99.99,,2013-11-10 05:53:00,